sensor_id;sensor_type;location;lat;lon;timestamp;temperature;humidity
13488;DHT22;6816;48.506;9.050;2023-04-01T00:00:15;10.40;99.90
13488;DHT22;6816;48.506;9.050;2023-04-01T00:03:16;10.40;99.90
13488;DHT22;6816;48.506;9.050;2023-04-01T00:06:18;10.50;99.90
13488;DHT22;6816;48.506;9.050;2023-04-01T00:09:19;10.40;99.90
13488;DHT22;6816;48.506;9.050;2023-04-01T00:12:19;10.40;99.90
13488;DHT22;6816;48.506;9.050;2023-04-01T00:15:20;10.40;99.90
13488;DHT22;6816;48.506;9.050;2023-04-01T00:18:21;10.40;99.90
13488;DHT22;6816;48.506;9.050;2023-04-01T00:21:22;10.40;99.90
13488;DHT22;6816;48.506;9.050;2023-04-01T00:24:23;10.40;99.90
13488;DHT22;6816;48.506;9.050;2023-04-01T00:27:23;10.40;99.90
13488;DHT22;6816;48.506;9.050;2023-04-01T00:30:25;10.40;99.90
13488;DHT22;6816;48.506;9.050;2023-04-01T00:33:25;10.50;99.90
13488;DHT22;6816;48.506;9.050;2023-04-01T00:36:27;10.40;99.90
13488;DHT22;6816;48.506;9.050;2023-04-01T00:39:31;10.40;99.90
13488;DHT22;6816;48.506;9.050;2023-04-01T00:42:33;10.40;99.90
13488;DHT22;6816;48.506;9.050;2023-04-01T00:45:39;10.40;99.90
13488;DHT22;6816;48.506;9.050;2023-04-01T00:48:54;10.50;99.90
13488;DHT22;6816;48.506;9.050;2023-04-01T00:51:57;10.50;99.90
13488;DHT22;6816;48.506;9.050;2023-04-01T00:55:00;10.40;99.90
13488;DHT22;6816;48.506;9.050;2023-04-01T00:58:04;10.40;99.90
13488;DHT22;6816;48.506;9.050;2023-04-01T01:01:06;10.50;99.90
13488;DHT22;6816;48.506;9.050;2023-04-01T01:04:29;10.40;99.90
13488;DHT22;6816;48.506;9.050;2023-04-01T01:10:57;10.40;99.90
13488;DHT22;6816;48.506;9.050;2023-04-01T01:14:04;10.30;99.90
13488;DHT22;6816;48.506;9.050;2023-04-01T01:27:16;10.20;99.90
13488;DHT22;6816;48.506;9.050;2023-04-01T01:30:42;10.20;99.90
13488;DHT22;6816;48.506;9.050;2023-04-01T01:34:08;10.20;99.90
13488;DHT22;6816;48.506;9.050;2023-04-01T01:37:16;10.20;99.90
13488;DHT22;6816;48.506;9.050;2023-04-01T01:40:18;10.20;99.90
13488;DHT22;6816;48.506;9.050;2023-04-01T01:43:24;10.20;99.90
13488;DHT22;6816;48.506;9.050;2023-04-01T01:46:26;10.20;99.90
13488;DHT22;6816;48.506;9.050;2023-04-01T01:49:30;10.20;99.90
13488;DHT22;6816;48.506;9.050;2023-04-01T01:52:32;10.20;99.90
13488;DHT22;6816;48.506;9.050;2023-04-01T01:55:39;10.20;99.90
13488;DHT22;6816;48.506;9.050;2023-04-01T01:58:48;10.20;99.90
13488;DHT22;6816;48.506;9.050;2023-04-01T02:01:52;10.20;99.90
13488;DHT22;6816;48.506;9.050;2023-04-01T02:04:55;10.20;99.90
13488;DHT22;6816;48.506;9.050;2023-04-01T02:08:06;10.30;99.90
13488;DHT22;6816;48.506;9.050;2023-04-01T02:11:11;10.30;99.90
13488;DHT22;6816;48.506;9.050;2023-04-01T02:17:48;10.30;99.90
13488;DHT22;6816;48.506;9.050;2023-04-01T02:20:50;10.30;99.90
13488;DHT22;6816;48.506;9.050;2023-04-01T02:23:53;10.30;99.90
13488;DHT22;6816;48.506;9.050;2023-04-01T02:26:54;10.30;99.90
13488;DHT22;6816;48.506;9.050;2023-04-01T02:29:54;10.30;99.90
13488;DHT22;6816;48.506;9.050;2023-04-01T02:32:56;10.30;99.90
13488;DHT22;6816;48.506;9.050;2023-04-01T02:35:58;10.30;99.90
13488;DHT22;6816;48.506;9.050;2023-04-01T02:38:59;10.20;99.90
13488;DHT22;6816;48.506;9.050;2023-04-01T02:42:02;10.20;99.90
13488;DHT22;6816;48.506;9.050;2023-04-01T02:45:04;10.20;99.90
13488;DHT22;6816;48.506;9.050;2023-04-01T02:48:05;10.20;99.90
13488;DHT22;6816;48.506;9.050;2023-04-01T02:51:06;10.20;99.90
13488;DHT22;6816;48.506;9.050;2023-04-01T02:54:06;10.20;99.90
13488;DHT22;6816;48.506;9.050;2023-04-01T02:57:07;10.20;99.90
13488;DHT22;6816;48.506;9.050;2023-04-01T03:00:08;10.10;99.90
13488;DHT22;6816;48.506;9.050;2023-04-01T03:03:11;10.10;99.90
13488;DHT22;6816;48.506;9.050;2023-04-01T03:06:15;10.00;99.90
13488;DHT22;6816;48.506;9.050;2023-04-01T03:09:15;10.00;99.90
13488;DHT22;6816;48.506;9.050;2023-04-01T03:12:16;10.00;99.90
13488;DHT22;6816;48.506;9.050;2023-04-01T03:15:17;9.80;99.90
13488;DHT22;6816;48.506;9.050;2023-04-01T03:18:17;9.80;99.90
13488;DHT22;6816;48.506;9.050;2023-04-01T03:21:20;9.70;99.90
13488;DHT22;6816;48.506;9.050;2023-04-01T03:24:21;9.70;99.90
13488;DHT22;6816;48.506;9.050;2023-04-01T03:27:22;9.60;99.90
13488;DHT22;6816;48.506;9.050;2023-04-01T03:30:23;9.60;99.90
13488;DHT22;6816;48.506;9.050;2023-04-01T03:33:24;9.60;99.90
13488;DHT22;6816;48.506;9.050;2023-04-01T03:36:24;9.50;99.90
13488;DHT22;6816;48.506;9.050;2023-04-01T03:39:25;9.50;99.90
13488;DHT22;6816;48.506;9.050;2023-04-01T03:42:26;9.50;99.90
13488;DHT22;6816;48.506;9.050;2023-04-01T03:45:27;9.40;99.90
13488;DHT22;6816;48.506;9.050;2023-04-01T03:48:27;9.40;99.90
13488;DHT22;6816;48.506;9.050;2023-04-01T03:51:28;9.30;99.90
13488;DHT22;6816;48.506;9.050;2023-04-01T03:54:29;9.30;99.90
13488;DHT22;6816;48.506;9.050;2023-04-01T03:57:32;9.30;99.90
13488;DHT22;6816;48.506;9.050;2023-04-01T04:00:33;9.30;99.90
13488;DHT22;6816;48.506;9.050;2023-04-01T04:03:34;9.20;99.90
13488;DHT22;6816;48.506;9.050;2023-04-01T04:06:34;9.30;99.90
13488;DHT22;6816;48.506;9.050;2023-04-01T04:09:35;9.20;99.90
13488;DHT22;6816;48.506;9.050;2023-04-01T04:12:36;9.30;99.90
13488;DHT22;6816;48.506;9.050;2023-04-01T04:15:36;9.30;99.90
13488;DHT22;6816;48.506;9.050;2023-04-01T04:18:37;9.30;99.90
13488;DHT22;6816;48.506;9.050;2023-04-01T04:21:39;9.30;99.90
13488;DHT22;6816;48.506;9.050;2023-04-01T04:24:40;9.30;99.90
13488;DHT22;6816;48.506;9.050;2023-04-01T04:27:41;9.30;99.90
13488;DHT22;6816;48.506;9.050;2023-04-01T04:30:42;9.20;99.90
13488;DHT22;6816;48.506;9.050;2023-04-01T04:33:42;9.20;99.90
13488;DHT22;6816;48.506;9.050;2023-04-01T04:36:43;9.20;99.90
13488;DHT22;6816;48.506;9.050;2023-04-01T04:39:43;9.20;99.90
13488;DHT22;6816;48.506;9.050;2023-04-01T04:42:44;9.20;99.90
13488;DHT22;6816;48.506;9.050;2023-04-01T04:45:45;9.20;99.90
13488;DHT22;6816;48.506;9.050;2023-04-01T04:48:46;9.20;99.90
13488;DHT22;6816;48.506;9.050;2023-04-01T04:51:47;9.30;99.90
13488;DHT22;6816;48.506;9.050;2023-04-01T04:54:48;9.30;99.90
13488;DHT22;6816;48.506;9.050;2023-04-01T04:57:49;9.30;99.90
13488;DHT22;6816;48.506;9.050;2023-04-01T05:00:50;9.50;99.90
13488;DHT22;6816;48.506;9.050;2023-04-01T05:03:50;9.30;99.90
13488;DHT22;6816;48.506;9.050;2023-04-01T05:06:51;9.30;99.90
13488;DHT22;6816;48.506;9.050;2023-04-01T05:09:52;9.30;99.90
13488;DHT22;6816;48.506;9.050;2023-04-01T05:12:53;9.40;99.90
13488;DHT22;6816;48.506;9.050;2023-04-01T05:15:53;9.40;99.90
13488;DHT22;6816;48.506;9.050;2023-04-01T05:18:54;9.50;99.90
13488;DHT22;6816;48.506;9.050;2023-04-01T05:21:55;9.50;99.90
13488;DHT22;6816;48.506;9.050;2023-04-01T05:24:58;9.50;99.90
13488;DHT22;6816;48.506;9.050;2023-04-01T05:28:00;9.60;99.90
13488;DHT22;6816;48.506;9.050;2023-04-01T05:31:02;9.70;99.90
13488;DHT22;6816;48.506;9.050;2023-04-01T05:34:03;9.70;99.90
13488;DHT22;6816;48.506;9.050;2023-04-01T05:37:04;9.80;99.90
13488;DHT22;6816;48.506;9.050;2023-04-01T05:40:05;9.80;99.90
13488;DHT22;6816;48.506;9.050;2023-04-01T05:43:06;9.90;99.90
13488;DHT22;6816;48.506;9.050;2023-04-01T05:46:06;10.00;99.90
13488;DHT22;6816;48.506;9.050;2023-04-01T05:49:07;10.10;99.90
13488;DHT22;6816;48.506;9.050;2023-04-01T05:52:08;10.10;99.90
13488;DHT22;6816;48.506;9.050;2023-04-01T05:55:09;10.10;99.90
13488;DHT22;6816;48.506;9.050;2023-04-01T05:58:09;10.20;99.90
13488;DHT22;6816;48.506;9.050;2023-04-01T06:01:11;10.20;99.90
13488;DHT22;6816;48.506;9.050;2023-04-01T06:04:16;10.30;99.90
13488;DHT22;6816;48.506;9.050;2023-04-01T06:07:18;10.40;99.90
13488;DHT22;6816;48.506;9.050;2023-04-01T06:10:21;10.40;99.90
13488;DHT22;6816;48.506;9.050;2023-04-01T06:13:40;10.50;99.90
13488;DHT22;6816;48.506;9.050;2023-04-01T06:27:17;10.90;99.90
13488;DHT22;6816;48.506;9.050;2023-04-01T06:30:38;11.00;99.90
13488;DHT22;6816;48.506;9.050;2023-04-01T06:44:16;11.20;99.90
13488;DHT22;6816;48.506;9.050;2023-04-01T06:47:34;11.20;99.90
13488;DHT22;6816;48.506;9.050;2023-04-01T07:00:28;11.40;99.90
13488;DHT22;6816;48.506;9.050;2023-04-01T07:03:33;11.50;99.90
13488;DHT22;6816;48.506;9.050;2023-04-01T07:06:50;11.50;99.90
13488;DHT22;6816;48.506;9.050;2023-04-01T07:09:55;11.50;99.90
13488;DHT22;6816;48.506;9.050;2023-04-01T07:13:06;11.60;99.90
13488;DHT22;6816;48.506;9.050;2023-04-01T07:16:18;11.60;99.90
13488;DHT22;6816;48.506;9.050;2023-04-01T07:19:45;11.70;99.90
13488;DHT22;6816;48.506;9.050;2023-04-01T07:22:56;11.70;99.90
13488;DHT22;6816;48.506;9.050;2023-04-01T07:26:01;11.80;99.90
13488;DHT22;6816;48.506;9.050;2023-04-01T07:29:09;11.80;99.90
13488;DHT22;6816;48.506;9.050;2023-04-01T07:35:30;11.90;99.90
13488;DHT22;6816;48.506;9.050;2023-04-01T07:46:19;12.00;99.90
13488;DHT22;6816;48.506;9.050;2023-04-01T07:49:08;12.00;99.90
13488;DHT22;6816;48.506;9.050;2023-04-01T07:52:34;12.00;99.90
13488;DHT22;6816;48.506;9.050;2023-04-01T08:05:57;12.10;99.90
13488;DHT22;6816;48.506;9.050;2023-04-01T08:21:55;12.20;99.90
13488;DHT22;6816;48.506;9.050;2023-04-01T08:25:00;12.20;99.90
13488;DHT22;6816;48.506;9.050;2023-04-01T08:31:13;12.20;99.90
13488;DHT22;6816;48.506;9.050;2023-04-01T08:34:23;12.30;99.90
13488;DHT22;6816;48.506;9.050;2023-04-01T08:37:28;12.20;99.90
13488;DHT22;6816;48.506;9.050;2023-04-01T09:00:28;12.20;99.90
13488;DHT22;6816;48.506;9.050;2023-04-01T09:13:59;12.20;99.90
13488;DHT22;6816;48.506;9.050;2023-04-01T09:17:28;12.20;99.90
13488;DHT22;6816;48.506;9.050;2023-04-01T09:27:29;12.30;99.90
13488;DHT22;6816;48.506;9.050;2023-04-01T09:44:02;12.60;99.90
13488;DHT22;6816;48.506;9.050;2023-04-01T09:54:22;12.70;99.90
13488;DHT22;6816;48.506;9.050;2023-04-01T09:57:59;12.70;99.90
13488;DHT22;6816;48.506;9.050;2023-04-01T10:14:24;12.60;99.90
13488;DHT22;6816;48.506;9.050;2023-04-01T10:21:35;12.50;99.90
13488;DHT22;6816;48.506;9.050;2023-04-01T10:51:47;12.60;99.90
13488;DHT22;6816;48.506;9.050;2023-04-01T10:55:04;12.70;99.90
13488;DHT22;6816;48.506;9.050;2023-04-01T10:58:54;12.70;99.90
13488;DHT22;6816;48.506;9.050;2023-04-01T11:16:09;12.90;99.90
13488;DHT22;6816;48.506;9.050;2023-04-01T11:35:38;13.10;99.90
13488;DHT22;6816;48.506;9.050;2023-04-01T11:38:57;13.20;99.90
13488;DHT22;6816;48.506;9.050;2023-04-01T11:42:22;13.20;99.90
13488;DHT22;6816;48.506;9.050;2023-04-01T11:49:03;13.30;99.90
13488;DHT22;6816;48.506;9.050;2023-04-01T11:53:06;13.40;99.90
13488;DHT22;6816;48.506;9.050;2023-04-01T12:15:35;13.60;99.90
13488;DHT22;6816;48.506;9.050;2023-04-01T12:25:27;13.60;99.90
13488;DHT22;6816;48.506;9.050;2023-04-01T12:35:24;13.80;99.90
13488;DHT22;6816;48.506;9.050;2023-04-01T12:42:03;13.80;99.90
13488;DHT22;6816;48.506;9.050;2023-04-01T12:45:39;13.80;99.90
13488;DHT22;6816;48.506;9.050;2023-04-01T12:55:45;14.00;99.90
13488;DHT22;6816;48.506;9.050;2023-04-01T13:02:40;14.20;99.90
13488;DHT22;6816;48.506;9.050;2023-04-01T13:06:12;14.30;99.90
13488;DHT22;6816;48.506;9.050;2023-04-01T13:09:43;14.40;99.90
13488;DHT22;6816;48.506;9.050;2023-04-01T13:16:29;14.50;99.90
13488;DHT22;6816;48.506;9.050;2023-04-01T13:27:05;14.90;99.90
13488;DHT22;6816;48.506;9.050;2023-04-01T13:30:26;15.10;99.90
13488;DHT22;6816;48.506;9.050;2023-04-01T13:43:47;15.20;99.90
13488;DHT22;6816;48.506;9.050;2023-04-01T13:46:59;15.30;99.90
13488;DHT22;6816;48.506;9.050;2023-04-01T13:50:26;15.30;99.90
13488;DHT22;6816;48.506;9.050;2023-04-01T13:56:48;15.30;99.90
13488;DHT22;6816;48.506;9.050;2023-04-01T14:10:49;15.20;99.90
13488;DHT22;6816;48.506;9.050;2023-04-01T14:17:30;15.10;99.90
13488;DHT22;6816;48.506;9.050;2023-04-01T14:33:38;14.90;99.90
13488;DHT22;6816;48.506;9.050;2023-04-01T14:50:45;14.70;99.90
13488;DHT22;6816;48.506;9.050;2023-04-01T14:57:10;14.70;99.90
13488;DHT22;6816;48.506;9.050;2023-04-01T15:00:17;14.70;99.90
13488;DHT22;6816;48.506;9.050;2023-04-01T15:03:32;14.70;99.90
13488;DHT22;6816;48.506;9.050;2023-04-01T15:09:48;14.60;99.90
13488;DHT22;6816;48.506;9.050;2023-04-01T15:19:48;14.60;99.90
13488;DHT22;6816;48.506;9.050;2023-04-01T15:23:17;14.60;99.90
13488;DHT22;6816;48.506;9.050;2023-04-01T15:27:41;14.50;99.90
13488;DHT22;6816;48.506;9.050;2023-04-01T15:33:26;14.40;99.90
13488;DHT22;6816;48.506;9.050;2023-04-01T15:49:41;14.10;99.90
13488;DHT22;6816;48.506;9.050;2023-04-01T15:52:54;14.00;99.90
13488;DHT22;6816;48.506;9.050;2023-04-01T15:59:39;13.90;99.90
13488;DHT22;6816;48.506;9.050;2023-04-01T16:06:41;13.80;99.90
13488;DHT22;6816;48.506;9.050;2023-04-01T16:09:52;13.80;99.90
13488;DHT22;6816;48.506;9.050;2023-04-01T16:20:24;13.70;99.90
13488;DHT22;6816;48.506;9.050;2023-04-01T16:23:39;13.60;99.90
13488;DHT22;6816;48.506;9.050;2023-04-01T16:26:56;13.60;99.90
13488;DHT22;6816;48.506;9.050;2023-04-01T16:30:32;13.50;99.90
13488;DHT22;6816;48.506;9.050;2023-04-01T16:36:51;13.50;99.90
13488;DHT22;6816;48.506;9.050;2023-04-01T16:40:16;13.50;99.90
13488;DHT22;6816;48.506;9.050;2023-04-01T16:43:47;13.40;99.90
13488;DHT22;6816;48.506;9.050;2023-04-01T16:47:12;13.40;99.90
13488;DHT22;6816;48.506;9.050;2023-04-01T16:53:42;13.40;99.90
13488;DHT22;6816;48.506;9.050;2023-04-01T17:00:26;13.40;99.90
13488;DHT22;6816;48.506;9.050;2023-04-01T17:03:40;13.30;99.90
13488;DHT22;6816;48.506;9.050;2023-04-01T17:06:52;13.40;99.90
13488;DHT22;6816;48.506;9.050;2023-04-01T17:10:25;13.20;99.90
13488;DHT22;6816;48.506;9.050;2023-04-01T17:13:41;13.20;99.90
13488;DHT22;6816;48.506;9.050;2023-04-01T17:26:58;13.10;99.90
13488;DHT22;6816;48.506;9.050;2023-04-01T17:30:24;13.00;99.90
13488;DHT22;6816;48.506;9.050;2023-04-01T17:33:36;13.00;99.90
13488;DHT22;6816;48.506;9.050;2023-04-01T17:47:02;12.60;99.90
13488;DHT22;6816;48.506;9.050;2023-04-01T17:53:51;12.70;99.90
13488;DHT22;6816;48.506;9.050;2023-04-01T17:57:00;12.60;99.90
13488;DHT22;6816;48.506;9.050;2023-04-01T18:06:32;12.50;99.90
13488;DHT22;6816;48.506;9.050;2023-04-01T18:26:33;12.40;99.90
13488;DHT22;6816;48.506;9.050;2023-04-01T18:29:55;12.40;99.90
13488;DHT22;6816;48.506;9.050;2023-04-01T18:33:09;12.40;99.90
13488;DHT22;6816;48.506;9.050;2023-04-01T18:39:35;12.40;99.90
13488;DHT22;6816;48.506;9.050;2023-04-01T18:42:50;12.40;99.90
13488;DHT22;6816;48.506;9.050;2023-04-01T18:46:12;12.20;99.90
13488;DHT22;6816;48.506;9.050;2023-04-01T18:52:33;12.10;99.90
13488;DHT22;6816;48.506;9.050;2023-04-01T18:55:42;12.00;99.90
13488;DHT22;6816;48.506;9.050;2023-04-01T18:59:05;11.90;99.90
13488;DHT22;6816;48.506;9.050;2023-04-01T19:02:19;11.80;99.90
13488;DHT22;6816;48.506;9.050;2023-04-01T19:05:34;11.60;99.90
13488;DHT22;6816;48.506;9.050;2023-04-01T19:08:40;11.50;99.90
13488;DHT22;6816;48.506;9.050;2023-04-01T19:15:38;11.30;99.90
13488;DHT22;6816;48.506;9.050;2023-04-01T19:22:00;11.10;99.90
13488;DHT22;6816;48.506;9.050;2023-04-01T19:25:37;11.00;99.90
13488;DHT22;6816;48.506;9.050;2023-04-01T19:38:48;10.60;99.90
13488;DHT22;6816;48.506;9.050;2023-04-01T19:48:51;10.30;99.90
13488;DHT22;6816;48.506;9.050;2023-04-01T19:52:02;10.20;99.90
13488;DHT22;6816;48.506;9.050;2023-04-01T19:58:37;10.10;99.90
13488;DHT22;6816;48.506;9.050;2023-04-01T20:05:39;9.90;99.90
13488;DHT22;6816;48.506;9.050;2023-04-01T20:15:36;9.70;99.90
13488;DHT22;6816;48.506;9.050;2023-04-01T20:21:49;9.60;99.90
13488;DHT22;6816;48.506;9.050;2023-04-01T20:24:52;9.50;99.90
13488;DHT22;6816;48.506;9.050;2023-04-01T20:28:20;9.50;99.90
13488;DHT22;6816;48.506;9.050;2023-04-01T20:31:33;9.50;99.90
13488;DHT22;6816;48.506;9.050;2023-04-01T20:35:11;9.40;99.90
13488;DHT22;6816;48.506;9.050;2023-04-01T20:42:01;9.40;99.90
13488;DHT22;6816;48.506;9.050;2023-04-01T20:51:39;9.30;99.90
13488;DHT22;6816;48.506;9.050;2023-04-01T21:07:41;9.10;99.90
13488;DHT22;6816;48.506;9.050;2023-04-01T21:20:34;9.10;99.90
13488;DHT22;6816;48.506;9.050;2023-04-01T21:33:43;9.20;99.90
13488;DHT22;6816;48.506;9.050;2023-04-01T21:51:12;9.30;99.90
13488;DHT22;6816;48.506;9.050;2023-04-01T21:54:50;9.30;99.90
13488;DHT22;6816;48.506;9.050;2023-04-01T22:04:42;9.50;99.90
13488;DHT22;6816;48.506;9.050;2023-04-01T22:11:27;9.60;99.90
13488;DHT22;6816;48.506;9.050;2023-04-01T22:17:58;9.70;99.90
13488;DHT22;6816;48.506;9.050;2023-04-01T22:21:42;9.70;99.90
13488;DHT22;6816;48.506;9.050;2023-04-01T22:24:57;9.70;99.90
13488;DHT22;6816;48.506;9.050;2023-04-01T22:28:10;9.70;99.90
13488;DHT22;6816;48.506;9.050;2023-04-01T22:31:15;9.80;99.90
13488;DHT22;6816;48.506;9.050;2023-04-01T22:34:24;9.80;99.90
13488;DHT22;6816;48.506;9.050;2023-04-01T22:43:57;9.80;99.90
13488;DHT22;6816;48.506;9.050;2023-04-01T22:47:04;9.70;99.90
13488;DHT22;6816;48.506;9.050;2023-04-01T22:50:19;9.70;99.90
13488;DHT22;6816;48.506;9.050;2023-04-01T22:56:53;9.60;99.90
13488;DHT22;6816;48.506;9.050;2023-04-01T23:00:01;9.50;99.90
13488;DHT22;6816;48.506;9.050;2023-04-01T23:06:35;9.50;99.90
13488;DHT22;6816;48.506;9.050;2023-04-01T23:09:38;9.40;99.90
13488;DHT22;6816;48.506;9.050;2023-04-01T23:12:40;9.30;99.90
13488;DHT22;6816;48.506;9.050;2023-04-01T23:15:42;9.30;99.90
13488;DHT22;6816;48.506;9.050;2023-04-01T23:19:08;9.30;99.90
13488;DHT22;6816;48.506;9.050;2023-04-01T23:22:32;9.20;99.90
13488;DHT22;6816;48.506;9.050;2023-04-01T23:29:17;9.20;99.90
13488;DHT22;6816;48.506;9.050;2023-04-01T23:32:22;9.10;99.90
13488;DHT22;6816;48.506;9.050;2023-04-01T23:35:26;9.10;99.90
13488;DHT22;6816;48.506;9.050;2023-04-01T23:38:26;9.10;99.90
13488;DHT22;6816;48.506;9.050;2023-04-01T23:41:30;9.00;99.90
13488;DHT22;6816;48.506;9.050;2023-04-01T23:44:32;9.00;99.90
13488;DHT22;6816;48.506;9.050;2023-04-01T23:47:36;9.00;99.90
13488;DHT22;6816;48.506;9.050;2023-04-01T23:50:38;9.00;99.90
13488;DHT22;6816;48.506;9.050;2023-04-01T23:53:44;8.90;99.90
13488;DHT22;6816;48.506;9.050;2023-04-01T23:56:48;8.90;99.90
